Ashcroft

Ashcroft

Ashcroft Airfield (EGCR) is located 2nm south west of  Winsford in Cheshire.

It offers four grass runways:

  • 09/27 520m x 11m with lights
  • 13/31 500m x 12m
  • 17/35 350m x 10m
  • 12/30 500m x 10m

Safety Com 135.475

Link for Ashcroft Airfield Pilot Briefing.

Manchester Weather
EGCC 261100Z 2612/2718 24009KT 9999 SCT030 PROB30 TEMPO 2621/2624 25015G25KT TEMPO 2700/2706 25015G25KT 8000 -RA BKN012 PROB40 TEMPO 2701/2704 4000 RA BKN008 PROB30 TEMPO 2704/2706 BKN005 PROB30 TEMPO 2706/2712 24015G25KT BECMG 2712/2715 30010KT